Time;durP1;ratioP1;P1;durP2;ratioP2;P2;SDS_P1;SDS_P2;PMS_P1;PMS_P2;Temp;Humidity;BMP_temperature;BMP_pressure;BME280_temperature;BME280_humidity;BME280_pressure;Samples;Min_cycle;Max_cycle;Signal;HPM_P1;HPM_P2
2023/01/25 00:01:40;;;;;;;14.20;9.50;;;3.30;73.40;;;;;;5074450;28;20179;-84
2023/01/25 00:04:05;;;;;;;19.33;12.00;;;3.30;73.50;;;;;;5074561;28;20168;-84
2023/01/25 00:06:31;;;;;;;17.20;10.70;;;3.20;73.40;;;;;;5076677;28;20195;-85
2023/01/25 00:08:57;;;;;;;12.13;8.90;;;3.20;73.40;;;;;;5078862;28;20244;-84
2023/01/25 00:11:22;;;;;;;15.37;10.20;;;3.20;73.80;;;;;;5078808;28;20162;-85
2023/01/25 00:13:48;;;;;;;18.70;11.13;;;3.00;73.90;;;;;;5077747;28;20329;-85
2023/01/25 00:16:14;;;;;;;17.70;10.93;;;2.80;74.70;;;;;;5077736;28;20181;-84
2023/01/25 00:18:40;;;;;;;18.00;11.03;;;2.90;74.60;;;;;;5080300;28;20280;-85
2023/01/25 00:21:17;;;;;;;15.10;10.20;;;2.90;74.90;;;;;;5077128;28;20220;-85
2023/01/25 00:23:43;;;;;;;16.10;10.90;;;3.00;74.40;;;;;;5078935;28;20198;-84
2023/01/25 00:26:09;;;;;;;15.70;10.33;;;3.00;74.30;;;;;;5078863;28;20457;-83
2023/01/25 00:28:34;;;;;;;17.30;10.30;;;3.00;74.10;;;;;;5082049;28;20611;-84
2023/01/25 00:31:02;;;;;;;16.20;11.60;;;3.00;74.50;;;;;;5079775;28;20414;-84
2023/01/25 00:33:36;;;;;;;14.80;10.43;;;3.00;74.40;;;;;;5083892;28;20910;-84
2023/01/25 00:36:26;;;;;;;18.47;10.43;;;3.00;74.20;;;;;;5083303;28;21012;-84
2023/01/25 00:38:53;;;;;;;14.77;10.20;;;3.00;74.50;;;;;;5077725;28;20861;-84
2023/01/25 00:41:19;;;;;;;16.57;10.23;;;2.90;74.60;;;;;;5077349;28;20459;-85
2023/01/25 00:43:44;;;;;;;18.60;10.97;;;3.00;74.60;;;;;;5077708;28;20399;-85
2023/01/25 00:46:15;;;;;;;18.50;10.80;;;2.90;74.50;;;;;;5077762;28;20481;-85
2023/01/25 00:48:40;;;;;;;19.27;10.73;;;2.90;74.80;;;;;;5077828;28;20191;-85
2023/01/25 00:51:06;;;;;;;22.23;12.10;;;3.00;74.70;;;;;;5076902;28;21005;-85
2023/01/25 00:53:32;;;;;;;13.87;9.60;;;3.10;74.20;;;;;;5088842;28;20180;-84
2023/01/25 00:55:58;;;;;;;16.93;11.00;;;3.00;74.00;;;;;;5088499;28;20531;-85
2023/01/25 00:58:24;;;;;;;14.07;9.33;;;3.00;74.00;;;;;;5082450;28;20431;-84
2023/01/25 01:00:51;;;;;;;15.57;10.23;;;3.00;74.00;;;;;;5083503;28;20180;-85
2023/01/25 01:03:17;;;;;;;16.10;9.93;;;3.10;74.20;;;;;;5077281;28;20196;-84
2023/01/25 01:05:43;;;;;;;18.97;11.47;;;3.20;73.90;;;;;;5080128;28;20526;-84
2023/01/25 01:08:09;;;;;;;17.13;10.87;;;3.10;73.80;;;;;;5077511;28;20194;-84
2023/01/25 01:10:35;;;;;;;17.30;11.23;;;3.10;73.90;;;;;;5077255;28;20224;-84
2023/01/25 01:13:01;;;;;;;17.80;10.27;;;3.00;74.00;;;;;;5077512;28;20405;-80
2023/01/25 01:15:26;;;;;;;12.47;9.00;;;3.20;73.90;;;;;;5077745;28;20181;-79
2023/01/25 01:17:52;;;;;;;18.43;10.23;;;3.20;73.60;;;;;;5076169;28;20566;-81
2023/01/25 01:20:18;;;;;;;18.27;9.90;;;3.30;73.50;;;;;;5077201;28;20619;-79
2023/01/25 01:22:43;;;;;;;14.50;9.90;;;3.40;72.70;;;;;;5075960;28;20201;-81
2023/01/25 01:25:10;;;;;;;16.50;9.87;;;3.30;72.50;;;;;;5076748;28;20213;-81
2023/01/25 01:27:39;;;;;;;16.23;9.83;;;3.40;72.60;;;;;;5075793;28;20182;-80
2023/01/25 01:30:05;;;;;;;17.87;10.70;;;3.40;72.50;;;;;;5076604;28;20549;-79
2023/01/25 01:32:31;;;;;;;16.37;9.70;;;3.40;72.40;;;;;;5077392;28;20504;-79
2023/01/25 01:34:57;;;;;;;19.10;10.17;;;3.40;72.70;;;;;;5077223;28;20440;-80
2023/01/25 01:37:22;;;;;;;19.87;12.00;;;3.50;72.40;;;;;;5078647;28;20195;-80
2023/01/25 01:39:48;;;;;;;14.90;9.80;;;3.40;72.40;;;;;;5080083;28;20200;-80
2023/01/25 01:42:14;;;;;;;16.73;11.53;;;3.30;72.60;;;;;;5077678;28;20177;-81
2023/01/25 01:44:46;;;;;;;14.97;10.47;;;3.40;72.50;;;;;;5078249;28;20253;-80
2023/01/25 01:47:23;;;;;;;17.70;11.20;;;3.40;72.40;;;;;;5077332;28;20173;-81
2023/01/25 01:49:54;;;;;;;17.27;11.97;;;3.30;72.80;;;;;;5077617;28;20400;-80
2023/01/25 01:52:25;;;;;;;19.00;12.20;;;3.20;73.00;;;;;;5077107;28;20482;-81
2023/01/25 01:54:51;;;;;;;17.73;11.43;;;3.30;72.60;;;;;;5075038;28;20430;-80
2023/01/25 01:57:35;;;;;;;19.80;12.20;;;3.30;72.70;;;;;;5076219;28;20458;-81
2023/01/25 02:00:09;;;;;;;20.10;10.87;;;3.30;73.10;;;;;;5077209;28;20248;-80
2023/01/25 02:02:34;;;;;;;19.03;11.20;;;3.40;73.00;;;;;;5076279;28;20418;-79
2023/01/25 02:05:05;;;;;;;18.27;12.37;;;3.30;72.80;;;;;;5075737;28;20459;-80
2023/01/25 02:07:33;;;;;;;15.13;9.43;;;3.30;72.50;;;;;;5076249;28;20509;-81
2023/01/25 02:10:00;;;;;;;16.43;10.30;;;3.20;72.30;;;;;;5076619;28;20935;-81
2023/01/25 02:12:27;;;;;;;14.73;10.83;;;3.00;72.60;;;;;;5074384;28;20422;-87
2023/01/25 02:14:54;;;;;;;15.23;11.00;;;3.10;72.80;;;;;;5075554;28;20415;-87
2023/01/25 02:17:26;;;;;;;14.10;10.47;;;3.10;72.90;;;;;;5074210;28;20420;-86
2023/01/25 02:20:00;;;;;;;16.03;10.40;;;3.10;73.20;;;;;;5074434;28;20768;-87
2023/01/25 02:22:34;;;;;;;16.73;11.00;;;3.10;73.30;;;;;;5076003;28;20776;-87
2023/01/25 02:25:04;;;;;;;18.30;10.60;;;3.00;73.30;;;;;;5073932;28;21040;-86
2023/01/25 02:27:32;;;;;;;17.20;10.13;;;2.90;73.10;;;;;;5074598;28;20419;-87
2023/01/25 02:30:01;;;;;;;16.73;10.00;;;2.90;73.40;;;;;;5073484;28;20842;-86
2023/01/25 02:32:27;;;;;;;14.00;9.23;;;2.80;73.20;;;;;;5074054;28;20835;-86
2023/01/25 02:34:53;;;;;;;15.90;10.40;;;2.80;73.50;;;;;;5075421;28;20415;-86
2023/01/25 02:37:18;;;;;;;15.93;9.43;;;2.70;73.90;;;;;;5076489;28;20190;-87
2023/01/25 02:39:44;;;;;;;20.07;10.70;;;2.70;74.10;;;;;;5083803;28;20606;-85
2023/01/25 02:42:10;;;;;;;15.20;9.57;;;2.70;74.30;;;;;;5074312;28;20180;-87
2023/01/25 02:44:37;;;;;;;16.93;10.00;;;2.70;74.40;;;;;;5073992;28;20573;-87
2023/01/25 02:47:03;;;;;;;20.80;11.17;;;2.70;74.20;;;;;;5074005;28;20633;-86
2023/01/25 02:49:29;;;;;;;19.40;11.60;;;2.60;74.40;;;;;;5073606;28;20487;-87
2023/01/25 02:51:56;;;;;;;13.87;9.93;;;2.70;74.50;;;;;;5075493;28;20172;-86
2023/01/25 02:54:22;;;;;;;17.50;10.70;;;2.70;74.40;;;;;;5074466;28;20182;-87
2023/01/25 02:56:48;;;;;;;16.50;9.60;;;2.90;74.00;;;;;;5073954;28;20462;-87
2023/01/25 02:59:13;;;;;;;14.03;8.60;;;2.80;73.70;;;;;;5075008;28;20510;-87
2023/01/25 03:01:41;;;;;;;13.00;8.97;;;2.70;73.90;;;;;;5073991;28;20418;-87
2023/01/25 03:04:07;;;;;;;16.50;10.20;;;2.60;74.30;;;;;;5074129;28;20262;-86
2023/01/25 03:06:37;;;;;;;18.70;10.80;;;2.60;74.80;;;;;;5073286;28;20453;-86
2023/01/25 03:09:04;;;;;;;16.50;10.83;;;2.40;75.10;;;;;;5074861;28;20805;-86
2023/01/25 03:11:30;;;;;;;17.93;10.90;;;2.50;75.50;;;;;;5092060;28;20425;-86
2023/01/25 03:13:56;;;;;;;18.83;11.03;;;2.50;75.50;;;;;;5090269;28;20434;-83
2023/01/25 03:16:22;;;;;;;17.10;10.20;;;2.60;75.10;;;;;;5075425;28;20414;-86
2023/01/25 03:18:48;;;;;;;16.80;9.93;;;2.60;74.90;;;;;;5073506;28;20348;-86
2023/01/25 03:21:16;;;;;;;19.20;11.13;;;2.60;74.90;;;;;;5075010;28;20173;-87
2023/01/25 03:23:44;;;;;;;20.90;10.90;;;2.70;74.80;;;;;;5073549;28;20439;-84
2023/01/25 03:26:15;;;;;;;18.23;10.00;;;2.70;74.60;;;;;;5073408;28;20460;-84
2023/01/25 03:28:44;;;;;;;16.07;11.40;;;2.80;74.50;;;;;;5073433;28;20442;-84
2023/01/25 03:31:12;;;;;;;15.90;10.53;;;2.80;74.20;;;;;;5073364;28;20417;-84
2023/01/25 03:33:41;;;;;;;17.17;10.60;;;2.90;73.90;;;;;;5072942;28;20510;-85
2023/01/25 03:36:07;;;;;;;14.50;9.97;;;2.90;73.90;;;;;;5074307;28;20444;-84
2023/01/25 03:38:33;;;;;;;15.77;10.13;;;2.80;73.70;;;;;;5072942;28;20491;-85
2023/01/25 03:40:59;;;;;;;18.47;10.50;;;3.00;73.70;;;;;;5074332;28;20493;-85
2023/01/25 03:43:25;;;;;;;15.00;10.37;;;3.00;73.50;;;;;;5074595;28;20490;-85
2023/01/25 03:45:53;;;;;;;17.83;9.37;;;3.00;73.40;;;;;;5073422;28;20210;-84
2023/01/25 03:48:19;;;;;;;16.47;11.00;;;3.10;73.30;;;;;;5072887;28;20837;-84
2023/01/25 03:50:54;;;;;;;14.80;10.00;;;3.00;73.00;;;;;;5074476;28;20452;-85
2023/01/25 03:53:29;;;;;;;19.60;10.77;;;3.10;72.90;;;;;;5073414;28;20412;-84
2023/01/25 03:56:00;;;;;;;16.50;10.70;;;3.00;73.00;;;;;;5073460;28;20423;-80
2023/01/25 03:58:27;;;;;;;16.73;11.97;;;3.10;73.00;;;;;;5073093;28;20447;-81
2023/01/25 04:00:59;;;;;;;17.47;10.77;;;3.20;72.80;;;;;;5074121;28;20467;-85
2023/01/25 04:03:25;;;;;;;18.10;11.37;;;3.20;72.60;;;;;;5074410;28;20421;-85
2023/01/25 04:05:52;;;;;;;18.90;10.27;;;3.30;72.60;;;;;;5074277;28;20462;-85
2023/01/25 04:08:18;;;;;;;13.40;9.57;;;3.30;72.20;;;;;;5072636;28;20431;-84
2023/01/25 04:10:48;;;;;;;16.47;11.03;;;3.20;72.20;;;;;;5073045;28;20425;-85
2023/01/25 04:13:14;;;;;;;18.50;10.43;;;3.20;72.20;;;;;;5072620;28;20210;-84
2023/01/25 04:15:39;;;;;;;14.80;9.50;;;3.30;72.10;;;;;;5072628;28;20813;-85
2023/01/25 04:18:05;;;;;;;13.37;9.10;;;3.30;71.80;;;;;;5072817;28;20225;-84
2023/01/25 04:20:31;;;;;;;13.57;9.40;;;3.20;71.80;;;;;;5072597;28;20213;-84
2023/01/25 04:22:57;;;;;;;13.13;9.30;;;3.10;72.10;;;;;;5073344;28;20225;-84
2023/01/25 04:25:22;;;;;;;16.40;12.50;;;3.20;72.00;;;;;;5073722;28;20204;-87
2023/01/25 04:27:49;;;;;;;16.10;9.77;;;3.20;71.90;;;;;;5072408;28;20201;-87
2023/01/25 04:30:15;;;;;;;15.73;10.50;;;3.30;72.00;;;;;;5074290;28;20165;-87
2023/01/25 04:32:41;;;;;;;17.50;9.47;;;3.40;71.80;;;;;;5073927;28;20404;-87
2023/01/25 04:35:07;;;;;;;16.40;9.40;;;3.40;71.50;;;;;;5072437;28;20442;-86
2023/01/25 04:37:32;;;;;;;16.13;10.23;;;3.40;71.50;;;;;;5074369;28;20168;-86
2023/01/25 04:39:58;;;;;;;14.90;10.00;;;3.40;71.40;;;;;;5073068;28;20412;-86
2023/01/25 04:42:24;;;;;;;14.40;9.63;;;3.40;71.50;;;;;;5072737;28;20181;-86
2023/01/25 04:44:50;;;;;;;14.40;10.67;;;3.40;71.40;;;;;;5075861;28;20207;-86
2023/01/25 04:47:15;;;;;;;18.03;10.20;;;3.40;71.10;;;;;;5079760;28;20414;-86
2023/01/25 04:49:41;;;;;;;11.90;8.40;;;3.40;70.90;;;;;;5073374;28;20284;-86
2023/01/25 04:52:07;;;;;;;14.07;9.80;;;3.20;70.60;;;;;;5074934;28;20706;-83
2023/01/25 04:54:32;;;;;;;14.53;10.10;;;3.30;70.80;;;;;;5075930;28;20170;-83
2023/01/25 04:56:58;;;;;;;12.50;9.57;;;3.10;70.60;;;;;;5075989;28;20168;-83
2023/01/25 04:59:26;;;;;;;15.10;10.47;;;3.00;71.10;;;;;;5077070;28;20190;-83
2023/01/25 05:01:52;;;;;;;18.07;10.43;;;3.00;72.20;;;;;;5076922;28;20171;-83
2023/01/25 05:04:18;;;;;;;14.33;8.60;;;3.10;71.70;;;;;;5075628;28;20465;-83
2023/01/25 05:06:43;;;;;;;14.03;8.90;;;3.00;71.30;;;;;;5075648;28;20198;-83
2023/01/25 05:09:09;;;;;;;16.20;8.80;;;3.00;71.30;;;;;;5075688;28;20206;-83
2023/01/25 05:11:35;;;;;;;14.30;8.60;;;2.90;71.30;;;;;;5075693;28;20179;-83
2023/01/25 05:14:00;;;;;;;15.30;8.47;;;2.80;71.20;;;;;;5075529;28;20180;-83
2023/01/25 05:16:29;;;;;;;13.63;9.17;;;2.80;71.60;;;;;;5076222;28;20178;-84
2023/01/25 05:18:55;;;;;;;13.23;8.23;;;2.80;71.70;;;;;;5076069;28;20570;-85
2023/01/25 05:24:05;;;;;;;13.43;8.90;;;2.80;71.90;;;;;;5077545;28;20184;-85
2023/01/25 05:29:15;;;;;;;14.53;9.17;;;2.60;72.20;;;;;;5084336;28;20429;-83
2023/01/25 05:31:41;;;;;;;14.20;9.27;;;2.70;72.30;;;;;;5079893;28;20420;-84
2023/01/25 05:34:08;;;;;;;12.50;8.90;;;2.80;72.00;;;;;;5077165;28;20171;-84
2023/01/25 05:36:34;;;;;;;12.37;8.27;;;2.80;71.70;;;;;;5075749;28;20551;-84
2023/01/25 05:38:59;;;;;;;12.73;9.60;;;2.90;71.80;;;;;;5076771;28;20442;-85
2023/01/25 05:41:25;;;;;;;13.23;9.37;;;3.00;71.60;;;;;;5076433;28;20208;-84
2023/01/25 05:43:53;;;;;;;13.80;9.37;;;3.20;71.60;;;;;;5075568;28;20247;-85
2023/01/25 05:46:19;;;;;;;16.77;9.80;;;3.30;71.20;;;;;;5075075;28;20249;-83
2023/01/25 05:48:47;;;;;;;15.03;9.50;;;3.20;70.80;;;;;;5076446;28;20472;-84
2023/01/25 05:51:13;;;;;;;12.43;7.83;;;3.30;70.50;;;;;;5076698;28;20254;-85
2023/01/25 05:53:38;;;;;;;11.70;7.80;;;3.40;69.90;;;;;;5075978;28;20445;-85
2023/01/25 05:56:05;;;;;;;14.63;8.87;;;3.40;69.50;;;;;;5074931;28;20640;-85
2023/01/25 05:58:31;;;;;;;13.13;8.73;;;3.30;69.10;;;;;;5074582;28;20198;-84
2023/01/25 06:01:00;;;;;;;15.43;9.47;;;3.30;69.30;;;;;;5074821;28;20562;-85
2023/01/25 06:03:25;;;;;;;13.37;7.50;;;3.40;69.20;;;;;;5075241;28;20252;-85
2023/01/25 06:05:55;;;;;;;17.00;8.80;;;3.20;69.10;;;;;;5075771;28;20556;-85
2023/01/25 06:08:21;;;;;;;13.77;7.90;;;3.10;69.40;;;;;;5074770;28;20191;-84
2023/01/25 06:10:49;;;;;;;17.53;8.97;;;3.20;69.60;;;;;;5076272;28;20412;-84
2023/01/25 06:13:15;;;;;;;16.00;9.30;;;3.20;69.20;;;;;;5074915;28;20275;-84
2023/01/25 06:15:41;;;;;;;10.93;8.33;;;3.20;69.50;;;;;;5074945;28;20446;-84
2023/01/25 06:18:06;;;;;;;13.90;9.00;;;3.00;69.70;;;;;;5074464;28;20444;-84
2023/01/25 06:20:33;;;;;;;13.53;8.37;;;3.00;70.30;;;;;;5075874;28;20203;-84
2023/01/25 06:23:01;;;;;;;12.43;9.10;;;3.10;70.20;;;;;;5074128;28;20214;-84
2023/01/25 06:25:27;;;;;;;13.30;9.80;;;3.20;70.30;;;;;;5075340;28;20456;-84
2023/01/25 06:27:54;;;;;;;13.53;9.30;;;3.10;70.60;;;;;;5074484;28;20808;-84
2023/01/25 06:30:20;;;;;;;10.93;8.10;;;3.10;69.70;;;;;;5074223;28;20193;-84
2023/01/25 06:32:45;;;;;;;14.37;8.80;;;3.10;69.70;;;;;;5075589;28;20817;-84
2023/01/25 06:35:11;;;;;;;14.43;10.13;;;3.20;69.70;;;;;;5075531;28;20217;-84
2023/01/25 06:37:37;;;;;;;15.07;8.83;;;3.30;69.80;;;;;;5075875;28;20528;-85
2023/01/25 06:40:03;;;;;;;15.17;8.17;;;3.20;69.50;;;;;;5074158;28;20182;-85
2023/01/25 06:42:32;;;;;;;14.80;9.00;;;3.30;69.20;;;;;;5074459;28;20583;-85
2023/01/25 06:44:58;;;;;;;15.60;11.23;;;3.20;68.90;;;;;;5073924;28;20478;-85
2023/01/25 06:47:23;;;;;;;19.90;10.47;;;3.20;69.00;;;;;;5074868;28;20411;-85
2023/01/25 06:49:49;;;;;;;15.03;10.07;;;3.30;69.30;;;;;;5075645;28;20692;-85
2023/01/25 06:52:15;;;;;;;17.00;10.50;;;3.40;69.20;;;;;;5075333;28;20188;-85
2023/01/25 06:55:16;;;;;;;11.87;9.10;;;3.50;69.00;;;;;;5078749;28;20197;-85
2023/01/25 06:57:42;;;;;;;13.30;8.23;;;3.40;68.50;;;;;;5080753;28;20156;-84
2023/01/25 07:00:08;;;;;;;16.23;10.50;;;3.40;68.70;;;;;;5074654;28;20496;-85
2023/01/25 07:02:35;;;;;;;14.93;9.37;;;3.30;68.70;;;;;;5075938;28;20554;-83
2023/01/25 07:05:01;;;;;;;13.37;9.23;;;3.20;69.20;;;;;;5074225;28;20459;-84
2023/01/25 07:07:26;;;;;;;14.40;10.00;;;3.30;69.30;;;;;;5074576;28;21024;-85
2023/01/25 07:09:52;;;;;;;13.97;9.43;;;3.10;69.40;;;;;;5075455;28;20205;-85
2023/01/25 07:12:19;;;;;;;20.50;12.90;;;2.90;70.00;;;;;;5073789;28;20266;-85
2023/01/25 07:14:47;;;;;;;19.30;12.07;;;2.90;70.20;;;;;;5074632;28;20186;-85
2023/01/25 07:17:13;;;;;;;22.03;15.60;;;3.10;70.50;;;;;;5076186;28;20509;-85
2023/01/25 07:19:38;;;;;;;17.57;10.33;;;3.00;70.00;;;;;;5076981;28;20456;-85
2023/01/25 07:22:04;;;;;;;13.07;8.40;;;3.00;70.10;;;;;;5076052;28;20233;-85
2023/01/25 07:24:30;;;;;;;14.70;7.33;;;3.10;70.20;;;;;;5074729;28;20187;-85
2023/01/25 07:26:55;;;;;;;18.97;10.50;;;3.20;70.20;;;;;;5075607;28;20729;-83
2023/01/25 07:29:21;;;;;;;13.30;8.63;;;3.30;69.40;;;;;;5077946;28;20216;-85
2023/01/25 07:31:47;;;;;;;14.07;8.00;;;3.20;68.60;;;;;;5076550;28;20170;-85
2023/01/25 07:34:13;;;;;;;16.47;9.07;;;3.20;68.90;;;;;;5077357;28;20415;-85
2023/01/25 07:36:40;;;;;;;12.83;8.80;;;3.10;69.10;;;;;;5077872;28;20179;-85
2023/01/25 07:39:08;;;;;;;14.13;8.03;;;3.00;69.60;;;;;;5075612;28;20479;-84
2023/01/25 07:41:33;;;;;;;12.00;8.33;;;3.20;69.80;;;;;;5075776;28;20406;-85
2023/01/25 07:43:59;;;;;;;17.70;9.10;;;3.30;69.70;;;;;;5075297;28;20489;-84
2023/01/25 07:46:25;;;;;;;13.03;8.70;;;3.30;69.30;;;;;;5079537;28;20694;-80
2023/01/25 07:48:52;;;;;;;11.50;6.90;;;3.40;69.20;;;;;;5076293;28;20193;-80
2023/01/25 07:51:22;;;;;;;14.50;8.87;;;3.40;68.80;;;;;;5076416;28;20454;-80
2023/01/25 07:53:56;;;;;;;11.50;8.70;;;3.40;68.50;;;;;;5073826;28;20407;-81
2023/01/25 07:56:24;;;;;;;16.03;9.07;;;3.40;68.30;;;;;;5073645;28;20419;-81
2023/01/25 07:58:58;;;;;;;13.40;7.47;;;3.40;68.30;;;;;;5076094;28;20523;-86
2023/01/25 08:01:26;;;;;;;13.03;8.53;;;3.30;68.60;;;;;;5076641;28;20919;-86
2023/01/25 08:03:55;;;;;;;15.53;8.90;;;3.30;68.50;;;;;;5078813;28;20809;-86
2023/01/25 08:06:34;;;;;;;12.87;7.80;;;3.20;68.70;;;;;;5075763;28;20454;-82
2023/01/25 08:09:02;;;;;;;13.33;9.40;;;3.10;71.70;;;;;;5080211;28;20493;-85
2023/01/25 08:11:30;;;;;;;18.27;9.27;;;3.00;70.30;;;;;;5077874;28;20401;-86
2023/01/25 08:13:57;;;;;;;12.50;8.23;;;3.00;70.20;;;;;;5076962;28;20416;-87
2023/01/25 08:16:25;;;;;;;13.17;8.73;;;3.00;70.00;;;;;;5077062;28;20411;-87
2023/01/25 08:18:53;;;;;;;12.80;8.40;;;3.10;70.10;;;;;;5079761;28;20428;-87
2023/01/25 08:21:20;;;;;;;10.53;7.93;;;3.20;69.80;;;;;;5078189;28;20418;-81
2023/01/25 08:23:48;;;;;;;14.33;9.50;;;3.30;68.90;;;;;;5075025;28;20446;-81
2023/01/25 08:26:17;;;;;;;14.60;8.50;;;3.30;69.00;;;;;;5075701;28;20537;-80
2023/01/25 08:28:43;;;;;;;11.43;7.97;;;3.30;68.50;;;;;;5077648;28;20518;-80
2023/01/25 08:31:17;;;;;;;13.67;8.57;;;3.20;68.50;;;;;;5077300;28;20447;-81
2023/01/25 08:33:46;;;;;;;14.50;10.00;;;3.10;68.50;;;;;;5077846;28;20151;-81
2023/01/25 08:36:16;;;;;;;13.93;8.33;;;3.10;68.80;;;;;;5077402;28;20406;-80
2023/01/25 08:38:42;;;;;;;14.03;9.00;;;3.00;69.10;;;;;;5078541;28;20441;-84
2023/01/25 08:41:28;;;;;;;12.63;8.27;;;3.00;69.40;;;;;;5081421;28;20419;-84
2023/01/25 08:43:55;;;;;;;13.00;8.47;;;2.80;69.70;;;;;;5081490;28;20423;-84
2023/01/25 08:46:29;;;;;;;13.43;8.03;;;2.90;69.70;;;;;;5080346;28;20508;-84
2023/01/25 08:48:56;;;;;;;14.67;8.60;;;3.00;69.50;;;;;;5081387;28;20431;-84
2023/01/25 08:51:23;;;;;;;16.03;10.00;;;3.00;69.20;;;;;;5082419;28;20476;-84
2023/01/25 08:53:49;;;;;;;11.90;7.63;;;2.80;69.00;;;;;;5084141;28;20889;-83
2023/01/25 08:56:15;;;;;;;11.43;7.43;;;2.90;69.20;;;;;;5080772;28;20843;-83
2023/01/25 08:58:44;;;;;;;14.63;8.40;;;3.10;69.10;;;;;;5080392;28;20473;-84
2023/01/25 09:01:12;;;;;;;12.20;7.40;;;3.20;68.90;;;;;;5077134;28;20931;-76
2023/01/25 09:03:40;;;;;;;12.83;7.80;;;3.20;68.30;;;;;;5077159;28;20418;-78
2023/01/25 09:06:07;;;;;;;12.90;7.93;;;3.30;67.90;;;;;;5076604;28;20461;-78
2023/01/25 09:08:33;;;;;;;10.80;7.67;;;3.40;67.80;;;;;;5077297;28;20471;-77
2023/01/25 09:11:03;;;;;;;15.83;9.73;;;3.50;67.30;;;;;;5077225;28;20428;-77
2023/01/25 09:13:29;;;;;;;12.37;8.73;;;3.50;67.10;;;;;;5077271;28;20470;-77
2023/01/25 09:16:06;;;;;;;16.30;9.50;;;3.40;66.30;;;;;;5075912;28;20415;-76
2023/01/25 09:18:34;;;;;;;15.93;9.30;;;3.50;66.70;;;;;;5075272;28;20431;-80
2023/01/25 09:21:05;;;;;;;15.00;9.33;;;3.60;66.60;;;;;;5076030;28;20420;-78
2023/01/25 09:23:31;;;;;;;14.67;9.37;;;3.70;66.50;;;;;;5077250;28;20395;-77
2023/01/25 09:25:58;;;;;;;11.63;8.47;;;3.70;66.30;;;;;;5077336;28;20467;-79
2023/01/25 09:28:25;;;;;;;12.27;8.20;;;3.80;66.40;;;;;;5075751;28;20665;-78
2023/01/25 09:30:59;;;;;;;15.67;9.03;;;3.70;66.00;;;;;;5075383;28;20421;-78
2023/01/25 09:33:29;;;;;;;13.57;9.40;;;3.80;66.00;;;;;;5076520;28;20400;-78
2023/01/25 09:35:55;;;;;;;13.53;8.23;;;3.90;65.90;;;;;;5076807;28;20556;-77
2023/01/25 09:38:21;;;;;;;12.37;8.40;;;3.90;65.60;;;;;;5076345;28;20456;-76
2023/01/25 09:41:13;;;;;;;13.13;7.93;;;3.80;66.10;;;;;;5077075;28;20572;-76
2023/01/25 09:44:03;;;;;;;13.07;8.53;;;3.70;66.00;;;;;;5070733;28;20417;-75
2023/01/25 09:46:51;;;;;;;13.20;8.10;;;3.60;66.20;;;;;;5075435;28;21055;-80
2023/01/25 09:49:23;;;;;;;11.00;6.93;;;3.60;66.50;;;;;;5074999;28;20787;-80
2023/01/25 09:52:01;;;;;;;11.60;7.37;;;3.70;66.10;;;;;;5076146;28;20410;-80
2023/01/25 09:54:29;;;;;;;11.90;8.80;;;3.80;66.30;;;;;;5076383;28;20408;-75
2023/01/25 09:56:55;;;;;;;13.03;7.57;;;3.80;66.00;;;;;;5076127;28;20416;-77
2023/01/25 09:59:29;;;;;;;10.87;7.37;;;3.80;65.40;;;;;;5075879;28;20797;-78
2023/01/25 10:02:23;;;;;;;14.10;8.00;;;3.90;65.50;;;;;;5077768;28;20849;-81
2023/01/25 10:04:52;;;;;;;14.60;8.63;;;4.00;65.50;;;;;;5077196;28;20415;-78
2023/01/25 10:07:26;;;;;;;13.77;8.37;;;4.00;65.10;;;;;;5078059;28;20888;-82
2023/01/25 10:10:02;;;;;;;17.80;8.93;;;4.00;64.90;;;;;;5077987;28;20400;-82
2023/01/25 10:12:37;;;;;;;12.67;8.10;;;3.80;65.10;;;;;;5075441;28;20460;-82
2023/01/25 10:15:37;;;;;;;12.20;8.03;;;3.40;65.70;;;;;;5075344;28;20502;-82
2023/01/25 10:18:26;;;;;;;11.93;7.83;;;3.40;67.00;;;;;;5067936;28;20472;-80
2023/01/25 10:21:10;;;;;;;15.33;8.63;;;3.50;66.80;;;;;;5074754;28;20410;-79
2023/01/25 10:23:54;;;;;;;12.87;8.57;;;3.50;67.30;;;;;;5076337;28;20754;-80
2023/01/25 10:26:28;;;;;;;11.20;8.13;;;3.50;67.20;;;;;;5075889;28;20893;-78
2023/01/25 10:29:09;;;;;;;12.70;8.70;;;3.50;67.30;;;;;;5075775;28;20521;-79
2023/01/25 10:31:52;;;;;;;14.37;9.03;;;3.50;67.60;;;;;;5076009;28;20412;-79
2023/01/25 10:34:18;;;;;;;14.10;8.70;;;3.60;67.80;;;;;;5076155;28;20515;-78
2023/01/25 10:36:48;;;;;;;21.20;12.67;;;3.60;66.60;;;;;;5076260;28;20444;-77
2023/01/25 10:39:14;;;;;;;10.80;7.30;;;3.70;66.30;;;;;;5074477;28;20202;-78
2023/01/25 10:41:44;;;;;;;10.93;7.83;;;3.80;66.10;;;;;;5074466;28;20776;-79
2023/01/25 10:44:23;;;;;;;11.40;8.47;;;3.90;66.10;;;;;;5075541;28;20499;-79
2023/01/25 10:47:21;;;;;;;12.17;7.80;;;4.00;66.10;;;;;;5076736;28;20458;-78
2023/01/25 10:49:53;;;;;;;13.40;9.00;;;4.00;65.90;;;;;;5076324;28;20514;-77
2023/01/25 10:52:20;;;;;;;10.50;7.37;;;4.00;65.70;;;;;;5076889;28;20490;-79
2023/01/25 10:55:22;;;;;;;11.93;7.13;;;4.10;65.60;;;;;;5088335;28;20489;-76
2023/01/25 10:57:58;;;;;;;11.23;7.37;;;4.20;65.30;;;;;;5076624;28;20435;-81
2023/01/25 11:00:57;;;;;;;10.80;7.27;;;4.20;64.90;;;;;;5076662;28;20906;-82
2023/01/25 11:03:32;;;;;;;11.20;7.23;;;4.10;64.80;;;;;;5076470;28;20407;-81
2023/01/25 11:06:00;;;;;;;12.13;7.77;;;4.00;65.10;;;;;;5076688;28;20451;-81
2023/01/25 11:08:40;;;;;;;11.53;7.43;;;3.90;65.40;;;;;;5076640;28;20434;-81
2023/01/25 11:11:37;;;;;;;10.03;7.50;;;3.90;65.40;;;;;;5074734;28;20432;-80
2023/01/25 11:14:15;;;;;;;12.73;8.97;;;3.80;65.50;;;;;;5076088;28;20396;-80
2023/01/25 11:16:46;;;;;;;10.00;7.37;;;3.80;65.70;;;;;;5075759;28;20411;-81
2023/01/25 11:19:42;;;;;;;9.60;6.93;;;3.80;65.00;;;;;;5074975;28;20513;-80
2023/01/25 11:22:48;;;;;;;11.33;8.10;;;3.90;65.20;;;;;;5075742;28;20391;-81
2023/01/25 11:25:34;;;;;;;11.87;7.57;;;3.90;65.50;;;;;;5074758;28;20439;-81
2023/01/25 11:28:29;;;;;;;15.70;8.20;;;3.90;66.40;;;;;;5074450;28;20534;-81
2023/01/25 11:30:58;;;;;;;13.13;9.07;;;3.90;65.90;;;;;;5066872;28;20477;-81
2023/01/25 11:33:34;;;;;;;11.97;8.30;;;3.80;65.70;;;;;;5074424;28;20407;-81
2023/01/25 11:36:18;;;;;;;10.30;7.30;;;4.00;65.40;;;;;;5074598;28;20498;-81
2023/01/25 11:39:23;;;;;;;13.20;8.63;;;4.00;65.30;;;;;;5075774;28;20439;-81
2023/01/25 11:42:15;;;;;;;13.87;9.57;;;4.00;64.80;;;;;;5033632;28;20428;-79
2023/01/25 11:44:53;;;;;;;12.70;8.40;;;4.10;65.10;;;;;;5070501;28;20444;-79
2023/01/25 11:47:37;;;;;;;14.00;8.00;;;4.00;65.00;;;;;;5074554;28;20427;-79
2023/01/25 11:50:41;;;;;;;9.87;7.30;;;3.80;65.20;;;;;;5074137;28;20412;-78
2023/01/25 11:53:44;;;;;;;9.57;7.40;;;3.70;66.20;;;;;;5074252;28;20458;-79
2023/01/25 11:56:48;;;;;;;11.80;7.43;;;3.60;66.20;;;;;;5073918;28;20921;-79
2023/01/25 11:59:20;;;;;;;12.57;8.73;;;3.50;65.80;;;;;;5074211;28;20478;-79
2023/01/25 12:02:13;;;;;;;10.30;7.03;;;3.60;65.70;;;;;;5075103;28;20417;-80
2023/01/25 12:04:55;;;;;;;16.87;8.87;;;3.70;65.50;;;;;;5078153;28;20404;-77
2023/01/25 12:07:48;;;;;;;13.60;7.20;;;3.80;65.80;;;;;;5079304;28;20428;-78
2023/01/25 12:10:23;;;;;;;13.23;7.67;;;3.80;65.50;;;;;;5078193;28;20501;-79
2023/01/25 12:12:58;;;;;;;11.80;6.97;;;3.80;65.10;;;;;;5077614;28;20408;-79
2023/01/25 12:15:32;;;;;;;13.33;8.20;;;3.80;65.30;;;;;;5079365;28;20400;-78
2023/01/25 12:18:19;;;;;;;10.43;7.40;;;3.90;65.40;;;;;;5079137;28;20422;-80
2023/01/25 12:21:24;;;;;;;14.57;8.33;;;4.00;65.30;;;;;;5077527;28;20404;-79
2023/01/25 12:23:50;;;;;;;11.03;7.13;;;4.10;65.20;;;;;;5047151;28;20410;-79
2023/01/25 12:26:30;;;;;;;14.00;8.07;;;4.00;64.90;;;;;;5077563;28;20451;-79
2023/01/25 12:29:01;;;;;;;11.87;7.43;;;3.90;65.00;;;;;;5078907;28;20186;-81
2023/01/25 12:31:45;;;;;;;12.43;8.40;;;3.60;65.10;;;;;;5077745;28;20405;-78
2023/01/25 12:34:21;;;;;;;13.90;9.00;;;3.60;65.70;;;;;;5082746;28;20491;-79
2023/01/25 12:36:49;;;;;;;12.43;7.43;;;3.60;65.90;;;;;;5078545;28;20410;-79
2023/01/25 12:39:37;;;;;;;9.97;6.50;;;3.50;65.70;;;;;;5078278;28;20482;-83
2023/01/25 12:42:39;;;;;;;14.03;8.20;;;3.60;66.00;;;;;;5078345;28;20399;-82
2023/01/25 12:45:23;;;;;;;11.60;6.90;;;3.70;65.40;;;;;;5055099;28;20479;-82
2023/01/25 12:47:55;;;;;;;12.07;7.23;;;3.40;66.60;;;;;;5076669;28;20441;-81
2023/01/25 12:50:55;;;;;;;11.70;6.70;;;3.40;66.40;;;;;;5077789;28;20399;-80
2023/01/25 12:53:41;;;;;;;14.43;9.40;;;3.40;66.20;;;;;;5076609;28;20415;-82
2023/01/25 12:56:19;;;;;;;12.60;7.90;;;3.60;66.20;;;;;;5077867;28;20417;-80
2023/01/25 12:58:55;;;;;;;11.33;6.80;;;3.80;65.90;;;;;;5078114;28;20429;-81
2023/01/25 13:01:26;;;;;;;9.97;7.63;;;3.70;64.80;;;;;;5076994;28;20418;-81
2023/01/25 13:04:02;;;;;;;12.27;8.17;;;3.60;65.30;;;;;;5076787;28;20416;-81
2023/01/25 13:06:55;;;;;;;9.77;7.20;;;3.70;64.90;;;;;;5077659;28;20446;-81
2023/01/25 13:09:32;;;;;;;12.40;6.73;;;3.80;64.70;;;;;;5076226;28;20429;-81